Time;durP1;ratioP1;P1;durP2;ratioP2;P2;SDS_P1;SDS_P2;PMS_P1;PMS_P2;Temp;Humidity;BMP_temperature;BMP_pressure;BME280_temperature;BME280_humidity;BME280_pressure;Samples;Min_cycle;Max_cycle;Signal;HPM_P1;HPM_P2
2022/08/09 00:02:27;;;;;;;3.92;3.13;;;;;;;17.41;78.00;101903.25;4856910;29;19958;-76
2022/08/09 00:04:54;;;;;;;4.25;3.38;;;;;;;17.40;78.54;101902.38;4853133;29;20037;-76
2022/08/09 00:07:42;;;;;;;5.45;3.53;;;;;;;17.41;78.51;101901.44;4854837;29;20499;-76
2022/08/09 00:10:10;;;;;;;4.47;3.55;;;;;;;17.36;79.10;101905.16;4874690;29;20037;-76
2022/08/09 00:12:46;;;;;;;4.70;3.88;;;;;;;17.43;79.53;101904.94;4883667;29;20049;-76
2022/08/09 00:15:17;;;;;;;5.55;3.90;;;;;;;17.37;79.72;101905.13;4843666;29;20056;-75
2022/08/09 00:17:44;;;;;;;5.82;4.35;;;;;;;17.32;79.98;101901.72;4844878;29;20124;-74
2022/08/09 00:20:31;;;;;;;4.00;3.38;;;;;;;17.26;79.87;101909.03;4869850;29;20054;-75
2022/08/09 00:22:59;;;;;;;7.13;3.83;;;;;;;17.23;80.25;101907.28;4854179;29;20113;-76
2022/08/09 00:25:46;;;;;;;4.85;3.45;;;;;;;17.26;80.16;101906.34;4870047;29;20464;-75
2022/08/09 00:28:18;;;;;;;4.57;3.88;;;;;;;17.23;80.47;101906.41;4852970;29;20076;-75
2022/08/09 00:30:49;;;;;;;5.40;3.40;;;;;;;17.20;80.37;101909.19;4872557;29;20501;-76
2022/08/09 00:33:15;;;;;;;6.22;3.92;;;;;;;17.26;80.45;101893.00;4863169;29;20071;-76
2022/08/09 00:35:42;;;;;;;3.95;3.25;;;;;;;17.21;80.61;101898.47;4870310;29;20045;-75
2022/08/09 00:38:11;;;;;;;4.25;3.80;;;;;;;17.20;81.14;101896.72;4871221;29;20271;-75
2022/08/09 00:40:41;;;;;;;5.97;4.18;;;;;;;17.22;80.98;101894.00;4872373;29;20056;-75
2022/08/09 00:43:21;;;;;;;5.75;3.75;;;;;;;17.23;80.99;101890.41;4845365;29;20084;-75
2022/08/09 00:46:08;;;;;;;5.13;3.40;;;;;;;17.22;80.97;101888.66;4844543;29;20093;-75
2022/08/09 00:48:35;;;;;;;4.95;3.78;;;;;;;17.20;81.20;101883.34;4867609;29;20093;-75
2022/08/09 00:51:06;;;;;;;4.60;3.70;;;;;;;17.18;81.51;101885.19;4834805;29;20042;-75
2022/08/09 00:53:38;;;;;;;5.53;3.97;;;;;;;17.16;81.83;101890.59;4874526;29;20033;-76
2022/08/09 00:56:06;;;;;;;7.43;4.22;;;;;;;17.14;82.04;101883.53;4863402;29;20044;-75
2022/08/09 00:58:35;;;;;;;3.97;3.53;;;;;;;17.12;82.14;101878.22;4866673;29;20040;-75
2022/08/09 01:01:14;;;;;;;5.00;3.70;;;;;;;17.12;82.49;101880.03;4866686;29;20077;-75
2022/08/09 01:03:53;;;;;;;7.22;3.78;;;;;;;17.13;82.04;101884.44;4859610;29;20069;-76
2022/08/09 01:06:28;;;;;;;4.63;4.10;;;;;;;17.16;82.89;101884.38;4870930;29;20338;-76
2022/08/09 01:09:38;;;;;;;4.43;3.88;;;;;;;17.10;83.11;101890.75;4870865;29;20444;-76
2022/08/09 01:12:17;;;;;;;4.53;4.13;;;;;;;17.03;83.12;101893.63;4850383;29;20045;-75
2022/08/09 01:14:56;;;;;;;6.30;4.38;;;;;;;16.98;83.37;101896.41;4857794;29;20044;-76
2022/08/09 01:17:29;;;;;;;4.68;3.60;;;;;;;16.98;83.21;101895.53;4846104;29;20053;-76
2022/08/09 01:20:22;;;;;;;4.93;3.80;;;;;;;17.00;83.12;101885.72;4880322;29;20041;-75
2022/08/09 01:23:07;;;;;;;5.25;3.80;;;;;;;16.96;83.71;101900.94;4878598;29;20040;-75
2022/08/09 01:26:01;;;;;;;4.28;3.85;;;;;;;16.93;84.18;101902.81;4875660;29;20132;-76
2022/08/09 01:28:28;;;;;;;5.82;3.72;;;;;;;16.93;84.16;101902.81;4878209;29;20104;-76
2022/08/09 01:30:57;;;;;;;4.32;3.92;;;;;;;16.91;84.01;101896.66;4863376;29;20116;-76
2022/08/09 01:33:27;;;;;;;6.78;3.78;;;;;;;16.91;84.08;101894.84;4843849;29;20056;-76
2022/08/09 01:36:02;;;;;;;4.80;4.28;;;;;;;16.85;84.50;101898.56;4847124;29;20052;-76
2022/08/09 01:38:31;;;;;;;5.72;4.07;;;;;;;16.81;84.60;101893.31;4859738;29;20093;-76
2022/08/09 01:41:03;;;;;;;4.20;3.58;;;;;;;16.83;84.50;101904.88;4865526;29;20065;-75
2022/08/09 01:43:32;;;;;;;5.00;3.80;;;;;;;16.82;84.68;101903.13;4864878;29;20380;-76
2022/08/09 01:46:43;;;;;;;5.25;3.80;;;;;;;16.78;85.23;101914.78;4862860;29;20049;-76
2022/08/09 01:49:14;;;;;;;6.03;4.38;;;;;;;16.76;85.18;101905.94;4859327;29;20128;-76
2022/08/09 01:51:50;;;;;;;4.72;4.03;;;;;;;16.78;84.83;101902.31;4865793;29;20048;-76
2022/08/09 01:54:31;;;;;;;4.25;3.72;;;;;;;16.74;84.84;101905.13;4861135;29;20049;-76
2022/08/09 01:57:03;;;;;;;6.53;4.28;;;;;;;16.75;84.85;101898.84;4880427;29;20041;-75
2022/08/09 01:59:32;;;;;;;;;;;;;;;16.75;84.68;101905.06;4876733;29;20621;-76
2022/08/09 02:02:16;;;;;;;8.30;4.68;;;;;;;16.72;85.17;101904.25;4873592;29;20297;-75
2022/08/09 02:04:47;;;;;;;4.85;3.80;;;;;;;16.73;85.65;101906.00;4862993;29;20041;-76
2022/08/09 02:07:17;;;;;;;5.57;4.20;;;;;;;16.70;86.37;101906.97;4860719;29;20037;-76
2022/08/09 02:10:10;;;;;;;6.30;4.50;;;;;;;16.64;86.39;101912.41;4878524;29;20038;-75
2022/08/09 02:12:37;;;;;;;6.75;4.53;;;;;;;16.64;86.30;101911.53;4859988;29;20563;-76
2022/08/09 02:15:06;;;;;;;4.60;3.80;;;;;;;16.61;86.66;101915.19;4859354;29;20041;-76
2022/08/09 02:17:34;;;;;;;5.18;3.70;;;;;;;16.59;86.55;101911.69;4875848;29;20037;-75
2022/08/09 02:20:20;;;;;;;4.55;3.90;;;;;;;16.59;86.97;101909.00;4858824;29;20415;-75
2022/08/09 02:23:08;;;;;;;5.95;4.72;;;;;;;16.56;87.20;101909.06;4870922;29;20475;-76
2022/08/09 02:25:38;;;;;;;5.50;4.10;;;;;;;16.57;87.19;101910.84;4842270;29;20424;-76
2022/08/09 02:28:18;;;;;;;6.55;4.13;;;;;;;16.52;87.43;101910.06;4886614;29;20060;-76
2022/08/09 02:30:48;;;;;;;5.40;4.20;;;;;;;16.53;87.71;101906.50;4875162;29;20034;-76
2022/08/09 02:33:23;;;;;;;5.65;4.43;;;;;;;16.51;87.61;101913.66;4866599;29;20045;-76
2022/08/09 02:36:32;;;;;;;5.35;4.70;;;;;;;16.53;87.76;101917.16;4858776;29;20045;-76
2022/08/09 02:39:02;;;;;;;7.43;4.50;;;;;;;16.53;88.26;101903.81;4872739;29;20419;-76
2022/08/09 02:41:43;;;;;;;6.07;4.95;;;;;;;16.52;87.74;101902.94;4851731;29;20124;-76
2022/08/09 02:44:14;;;;;;;6.20;5.25;;;;;;;16.56;88.01;101901.97;4869355;29;20048;-76
2022/08/09 02:46:57;;;;;;;7.72;5.10;;;;;;;16.52;88.50;101908.28;4861097;29;20037;-76
2022/08/09 02:49:29;;;;;;;5.28;4.57;;;;;;;16.50;89.15;101914.59;4884069;29;20044;-76
2022/08/09 02:52:11;;;;;;;5.78;4.93;;;;;;;16.54;88.12;101919.78;4882922;29;20174;-76
2022/08/09 02:54:39;;;;;;;6.25;4.55;;;;;;;16.49;88.38;101921.72;4869407;29;20078;-76
2022/08/09 02:57:23;;;;;;;7.22;4.78;;;;;;;16.51;88.41;101917.22;4858923;29;20476;-76
2022/08/09 02:59:52;;;;;;;7.95;4.57;;;;;;;16.47;88.90;101920.84;4853763;29;20034;-76
2022/08/09 03:02:43;;;;;;;8.25;5.40;;;;;;;16.48;89.03;101916.38;4853504;29;20052;-76
2022/08/09 03:05:25;;;;;;;6.20;4.82;;;;;;;16.49;89.34;101918.16;4867085;29;20165;-76
2022/08/09 03:07:53;;;;;;;7.50;5.10;;;;;;;16.49;88.97;101923.50;4839406;29;20052;-76
2022/08/09 03:10:21;;;;;;;6.10;4.97;;;;;;;16.47;89.61;101927.97;4845231;29;20073;-76
2022/08/09 03:12:48;;;;;;;5.97;5.13;;;;;;;16.52;89.26;101923.41;4838259;29;20049;-76
2022/08/09 03:15:19;;;;;;;6.50;5.13;;;;;;;16.50;89.02;101920.78;4852218;29;20101;-76
2022/08/09 03:17:49;;;;;;;6.70;5.45;;;;;;;16.52;89.14;101920.75;4839424;29;20044;-76
2022/08/09 03:20:25;;;;;;;7.53;5.57;;;;;;;16.47;89.82;101922.63;4853820;29;20526;-76
2022/08/09 03:22:56;;;;;;;7.72;5.10;;;;;;;16.45;89.97;101928.03;4852290;29;20130;-77
2022/08/09 03:25:37;;;;;;;7.43;5.57;;;;;;;16.46;90.12;101924.44;4871583;29;20076;-76
2022/08/09 03:28:26;;;;;;;6.20;5.45;;;;;;;16.50;89.82;101925.25;4877620;29;20059;-77
2022/08/09 03:30:53;;;;;;;12.05;6.50;;;;;;;16.49;89.52;101924.38;4883287;29;20037;-76
2022/08/09 03:33:21;;;;;;;8.35;5.68;;;;;;;16.51;89.76;101927.00;4848662;29;20045;-76
2022/08/09 03:35:50;;;;;;;6.10;5.50;;;;;;;16.51;89.67;101930.53;4855638;29;20131;-77
2022/08/09 03:38:38;;;;;;;7.32;5.03;;;;;;;16.46;90.26;101932.44;4863919;29;20093;-77
2022/08/09 03:41:10;;;;;;;7.70;5.43;;;;;;;16.43;90.49;101936.97;4858954;29;20483;-77
2022/08/09 03:43:43;;;;;;;8.73;5.73;;;;;;;16.41;90.31;101933.47;4859300;29;20647;-77
2022/08/09 03:46:30;;;;;;;8.48;5.43;;;;;;;16.43;90.63;101939.66;4872576;29;20060;-77
2022/08/09 03:48:58;;;;;;;7.93;5.65;;;;;;;16.41;90.67;101938.81;4875656;29;20044;-76
2022/08/09 03:51:30;;;;;;;6.22;5.13;;;;;;;16.38;91.29;101937.06;4858396;29;20192;-76
2022/08/09 03:54:17;;;;;;;7.82;5.45;;;;;;;16.49;90.53;101937.72;4846983;29;20060;-76
2022/08/09 03:56:56;;;;;;;8.18;5.40;;;;;;;16.44;90.13;101944.94;4876335;29;20040;-76
2022/08/09 03:59:23;;;;;;;8.48;6.10;;;;;;;16.45;90.65;101944.03;4869703;29;20051;-76
2022/08/09 04:02:09;;;;;;;8.80;5.60;;;;;;;16.46;90.02;101939.56;4872175;29;20513;-76
2022/08/09 04:04:36;;;;;;;5.85;5.00;;;;;;;16.40;90.70;101945.06;4880862;29;20052;-76
2022/08/09 04:07:04;;;;;;;6.75;5.68;;;;;;;16.39;91.14;101944.16;4861956;29;20135;-76
2022/08/09 04:09:31;;;;;;;7.78;6.03;;;;;;;16.46;90.05;101947.56;4875112;29;20041;-76
2022/08/09 04:12:44;;;;;;;8.13;5.82;;;;;;;16.49;90.49;101943.06;4875854;29;20037;-77
2022/08/09 04:15:13;;;;;;;7.65;6.28;;;;;;;16.41;90.29;101945.03;4861652;29;20041;-76
2022/08/09 04:17:59;;;;;;;8.90;5.97;;;;;;;16.39;91.12;101952.16;4878096;29;20112;-76
2022/08/09 04:20:26;;;;;;;8.55;6.05;;;;;;;16.35;91.50;101952.28;4874492;29;20048;-76
2022/08/09 04:22:54;;;;;;;7.72;5.50;;;;;;;16.39;90.87;101952.16;4889705;29;20051;-77
2022/08/09 04:25:21;;;;;;;7.32;5.85;;;;;;;16.43;90.67;101953.84;4869661;29;20052;-76
2022/08/09 04:27:48;;;;;;;7.10;5.43;;;;;;;16.44;90.97;101952.94;4875736;29;20084;-76
2022/08/09 04:30:18;;;;;;;6.57;5.38;;;;;;;16.41;91.21;101961.03;4865136;29;20044;-76
2022/08/09 04:32:49;;;;;;;8.77;5.53;;;;;;;16.40;91.16;101969.06;4866928;29;20041;-76
2022/08/09 04:35:16;;;;;;;9.05;5.70;;;;;;;16.44;90.27;101968.94;4872405;29;20064;-77
2022/08/09 04:37:47;;;;;;;8.23;6.20;;;;;;;16.47;90.83;101968.00;4875311;29;20041;-77
2022/08/09 04:40:14;;;;;;;7.50;5.55;;;;;;;16.54;90.32;101973.13;4870990;29;20045;-77
2022/08/09 04:43:00;;;;;;;9.52;7.00;;;;;;;16.55;90.02;101968.69;4864346;29;20056;-77
2022/08/09 04:45:29;;;;;;;9.50;5.90;;;;;;;16.62;89.88;101972.97;4874055;29;20069;-76
2022/08/09 04:47:58;;;;;;;6.82;5.57;;;;;;;16.73;89.81;101984.28;4861122;29;20087;-76
2022/08/09 04:50:32;;;;;;;7.97;6.35;;;;;;;16.77;89.77;101977.94;4877538;29;20033;-77
2022/08/09 04:53:07;;;;;;;8.45;5.07;;;;;;;16.80;89.64;101983.19;4880278;29;20047;-77
2022/08/09 04:55:39;;;;;;;8.48;5.47;;;;;;;16.91;88.71;101982.94;4863708;29;20045;-77
2022/08/09 04:58:24;;;;;;;12.88;7.40;;;;;;;17.00;87.56;101988.06;4877646;29;20522;-77
2022/08/09 05:00:51;;;;;;;9.57;6.53;;;;;;;17.07;87.06;101984.31;4884342;29;20033;-77
2022/08/09 05:03:20;;;;;;;7.47;5.97;;;;;;;17.13;86.43;101988.59;4880283;29;20055;-77
2022/08/09 05:06:07;;;;;;;8.18;5.70;;;;;;;17.12;86.39;101986.84;4884750;29;20045;-77
2022/08/09 05:08:34;;;;;;;6.78;5.47;;;;;;;17.17;87.18;101992.94;4896720;29;20054;-77
2022/08/09 05:11:02;;;;;;;9.05;6.13;;;;;;;17.32;85.81;101992.53;4880239;29;20044;-76
2022/08/09 05:13:32;;;;;;;9.27;6.97;;;;;;;17.45;83.08;101995.72;4881144;29;20049;-77
2022/08/09 05:16:04;;;;;;;8.77;6.03;;;;;;;17.50;83.97;101993.81;4860275;29;20045;-77
2022/08/09 05:18:32;;;;;;;8.30;6.40;;;;;;;17.63;81.62;101995.22;4856095;29;20041;-78
2022/08/09 05:21:08;;;;;;;10.68;6.57;;;;;;;17.75;79.37;101993.16;4867837;29;20411;-77
2022/08/09 05:23:48;;;;;;;7.88;5.88;;;;;;;17.81;80.12;101995.63;4860433;29;20147;-77
2022/08/09 05:26:28;;;;;;;8.02;5.60;;;;;;;17.92;80.37;101993.53;4876951;29;20559;-76
2022/08/09 05:29:12;;;;;;;8.00;6.10;;;;;;;17.98;76.41;101996.88;4891839;29;20049;-77
2022/08/09 05:31:43;;;;;;;16.02;7.45;;;;;;;18.12;75.82;102001.81;4870218;29;20096;-77
2022/08/09 05:34:16;;;;;;;145.95;25.42;;;;;;;18.28;74.38;101996.88;4868720;29;20057;-77
2022/08/09 05:36:43;;;;;;;61.13;14.13;;;;;;;18.37;75.49;101996.59;4876195;29;20068;-79
2022/08/09 05:39:13;;;;;;;14.60;6.78;;;;;;;18.45;71.54;102002.56;4875275;29;20041;-78
2022/08/09 05:41:55;;;;;;;12.90;6.93;;;;;;;18.51;70.48;102010.41;4884369;29;20041;-76
2022/08/09 05:44:30;;;;;;;8.10;6.22;;;;;;;18.65;68.81;102004.63;4881458;29;20464;-77
2022/08/09 05:47:00;;;;;;;7.03;4.82;;;;;;;18.75;69.42;102006.09;4847815;29;20037;-77
2022/08/09 05:49:32;;;;;;;10.32;5.60;;;;;;;19.03;67.21;102008.72;4875933;29;20535;-77
2022/08/09 05:52:19;;;;;;;7.68;4.68;;;;;;;19.14;65.27;102005.66;4860788;29;20534;-77
2022/08/09 05:54:45;;;;;;;8.27;4.80;;;;;;;19.24;65.24;102006.22;4876229;29;20515;-77
2022/08/09 05:57:15;;;;;;;6.28;4.72;;;;;;;19.46;64.49;102009.00;4877380;29;20097;-76
2022/08/09 05:59:44;;;;;;;6.93;4.53;;;;;;;19.92;63.09;102005.53;4876347;29;20076;-77
2022/08/09 06:02:11;;;;;;;7.93;5.45;;;;;;;20.21;58.46;102020.50;4860821;29;20124;-77
2022/08/09 06:04:44;;;;;;;8.05;4.35;;;;;;;20.44;58.39;102011.59;4843149;29;20069;-77
2022/08/09 06:07:12;;;;;;;6.15;4.40;;;;;;;20.58;56.75;102016.38;4870169;29;20041;-77
2022/08/09 06:09:48;;;;;;;7.20;5.28;;;;;;;20.96;54.07;102001.38;4846247;29;20073;-77
2022/08/09 06:12:26;;;;;;;6.80;4.30;;;;;;;20.88;54.46;102016.94;4878269;29;20091;-76
2022/08/09 06:14:53;;;;;;;6.65;4.95;;;;;;;20.59;54.81;102015.44;4874743;29;20053;-78
2022/08/09 06:17:19;;;;;;;9.45;4.55;;;;;;;20.45;56.54;102018.72;4885915;29;20037;-77
2022/08/09 06:19:46;;;;;;;7.72;4.95;;;;;;;20.25;55.82;102027.50;4874235;29;20494;-78
2022/08/09 06:22:14;;;;;;;9.05;4.47;;;;;;;20.67;55.42;102019.56;4884410;29;20057;-78
2022/08/09 06:24:42;;;;;;;5.55;4.03;;;;;;;20.88;55.31;102022.31;4867049;29;20064;-78
2022/08/09 06:27:09;;;;;;;6.55;4.15;;;;;;;20.96;54.13;102020.19;4862990;29;20048;-78
2022/08/09 06:29:35;;;;;;;7.47;4.45;;;;;;;21.31;53.01;102021.38;4881547;29;20479;-77
2022/08/09 06:32:22;;;;;;;6.50;3.63;;;;;;;21.80;51.72;102029.97;4873398;29;20045;-78
2022/08/09 06:35:09;;;;;;;4.88;3.55;;;;;;;22.24;48.87;102032.44;4875488;29;20045;-77
2022/08/09 06:37:37;;;;;;;5.25;3.28;;;;;;;22.72;48.74;102035.44;4875124;29;20045;-78
2022/08/09 06:40:24;;;;;;;4.97;2.90;;;;;;;23.50;45.63;102031.47;4863003;29;20388;-77
2022/08/09 06:42:52;;;;;;;4.60;3.20;;;;;;;23.76;43.72;102030.09;4867446;29;20080;-78
2022/08/09 06:45:19;;;;;;;3.08;2.70;;;;;;;23.79;43.31;102032.63;4868225;29;20052;-78
2022/08/09 06:48:06;;;;;;;3.28;2.55;;;;;;;23.76;43.04;102026.53;4844680;29;20041;-77
2022/08/09 06:50:34;;;;;;;3.28;2.33;;;;;;;23.62;43.17;102024.56;4859774;29;20547;-77
2022/08/09 06:53:01;;;;;;;5.40;2.90;;;;;;;23.73;42.81;102032.09;4846478;29;20097;-77
2022/08/09 06:55:30;;;;;;;2.95;2.20;;;;;;;23.87;43.11;102027.69;4858771;29;20063;-77
2022/08/09 06:57:58;;;;;;;2.53;2.03;;;;;;;23.83;43.18;102025.25;4884864;29;20506;-77
2022/08/09 07:00:30;;;;;;;4.55;3.00;;;;;;;23.77;43.52;102039.06;4843506;29;20053;-77
2022/08/09 07:03:16;;;;;;;4.22;2.40;;;;;;;23.69;43.34;102030.50;4875073;29;20069;-78
2022/08/09 07:05:43;;;;;;;44.95;8.55;;;;;;;23.90;43.10;102034.75;4873268;29;20045;-78
2022/08/09 07:08:29;;;;;;;19.15;4.90;;;;;;;24.13;43.77;102034.38;4864558;29;20041;-79
2022/08/09 07:10:56;;;;;;;6.72;2.97;;;;;;;24.37;42.47;102044.78;4871350;29;20053;-79
2022/08/09 07:13:23;;;;;;;3.63;2.60;;;;;;;24.55;41.97;102041.06;4877543;29;20041;-78
2022/08/09 07:15:55;;;;;;;6.53;3.10;;;;;;;24.91;41.06;102042.56;4876214;29;20069;-78
2022/08/09 07:18:42;;;;;;;3.28;2.38;;;;;;;25.15;40.61;102041.16;4861706;29;20097;-78
2022/08/09 07:21:09;;;;;;;3.45;2.38;;;;;;;25.15;40.24;102046.56;4882063;29;20038;-78
2022/08/09 07:23:36;;;;;;;3.78;2.40;;;;;;;24.97;41.38;102047.59;4865689;29;20049;-79
2022/08/09 07:26:24;;;;;;;2.90;2.20;;;;;;;25.35;42.19;102052.59;4876471;29;20041;-77
2022/08/09 07:28:50;;;;;;;2.75;2.53;;;;;;;25.41;40.64;102053.09;4861350;29;20586;-78
2022/08/09 07:31:37;;;;;;;3.47;2.72;;;;;;;25.29;40.93;102045.72;4847312;29;20029;-78
2022/08/09 07:34:11;;;;;;;3.30;2.50;;;;;;;25.12;41.71;102049.44;4857872;29;20053;-78
2022/08/09 07:36:48;;;;;;;4.63;3.00;;;;;;;25.52;41.19;102044.31;4873364;29;20042;-78
2022/08/09 07:39:15;;;;;;;3.35;2.53;;;;;;;25.50;41.31;102047.13;4872067;29;20498;-78
2022/08/09 07:42:01;;;;;;;4.07;2.33;;;;;;;25.60;40.61;102050.13;4877129;29;20108;-78
2022/08/09 07:44:30;;;;;;;4.43;2.30;;;;;;;25.66;41.36;102051.59;4873998;29;20411;-78
2022/08/09 07:47:17;;;;;;;2.92;2.42;;;;;;;25.29;41.31;102059.22;4863117;29;20048;-78
2022/08/09 07:49:46;;;;;;;2.50;2.30;;;;;;;25.47;40.91;102051.84;4843635;29;20045;-78
2022/08/09 07:52:31;;;;;;;5.78;2.72;;;;;;;25.76;40.88;102064.50;4857402;29;20033;-78
2022/08/09 07:55:02;;;;;;;4.32;2.60;;;;;;;25.45;39.69;102057.34;4870289;29;20063;-78
2022/08/09 07:57:34;;;;;;;3.95;2.25;;;;;;;25.68;40.08;102053.25;4859659;29;20088;-77
2022/08/09 08:00:03;;;;;;;2.97;2.30;;;;;;;26.09;39.76;102055.22;4878015;29;20060;-79
2022/08/09 08:02:34;;;;;;;3.60;2.43;;;;;;;26.45;38.21;102056.56;4869409;29;20053;-77
2022/08/09 08:05:08;;;;;;;9.98;3.22;;;;;;;26.52;38.19;102057.91;4870473;29;20071;-78
2022/08/09 08:07:44;;;;;;;4.95;2.80;;;;;;;26.41;38.49;102042.34;4873685;29;20033;-77
2022/08/09 08:10:31;;;;;;;127.95;22.40;;;;;;;26.47;38.86;102050.06;4836384;29;20101;-78
2022/08/09 08:13:00;;;;;;;5.70;2.58;;;;;;;26.35;39.00;102040.88;4859545;29;20071;-77
2022/08/09 08:15:29;;;;;;;40.28;8.30;;;;;;;26.26;38.77;102046.00;4879615;29;20050;-77
2022/08/09 08:18:03;;;;;;;4.30;2.63;;;;;;;25.80;39.96;102047.09;4867475;29;20132;-78
2022/08/09 08:20:30;;;;;;;4.25;2.30;;;;;;;26.09;38.64;102044.38;4845550;29;20645;-77
2022/08/09 08:23:04;;;;;;;3.33;2.58;;;;;;;26.32;38.68;102040.22;4885089;29;20047;-78
2022/08/09 08:25:43;;;;;;;;;;;;;;;26.44;39.14;102047.56;4864748;29;20044;-78
2022/08/09 08:28:14;;;;;;;4.10;2.15;;;;;;;26.53;39.15;102043.38;4853612;29;19931;-78
2022/08/09 08:30:51;;;;;;;14.90;4.60;;;;;;;26.71;39.14;102046.72;4874793;29;20035;-78
2022/08/09 08:33:17;;;;;;;5.45;2.88;;;;;;;26.74;38.25;102047.38;4861532;29;20045;-78
2022/08/09 08:35:50;;;;;;;4.05;2.90;;;;;;;26.90;37.50;102048.06;4857063;29;20131;-78
2022/08/09 08:38:27;;;;;;;3.90;2.20;;;;;;;26.69;37.29;102052.25;4873983;29;20045;-78
2022/08/09 08:40:55;;;;;;;2.85;2.55;;;;;;;26.61;37.81;102039.19;4866764;29;20037;-78
2022/08/09 08:43:22;;;;;;;2.92;2.17;;;;;;;27.12;38.46;102043.94;4861157;29;20049;-78
2022/08/09 08:45:57;;;;;;;2.97;2.53;;;;;;;27.02;37.88;102040.09;4858387;29;20045;-78
2022/08/09 08:48:44;;;;;;;3.47;2.70;;;;;;;27.02;38.39;102046.41;4861052;29;20052;-78
2022/08/09 08:51:17;;;;;;;3.65;2.65;;;;;;;26.97;38.73;102053.97;4874725;29;20048;-78
2022/08/09 08:53:44;;;;;;;4.95;2.67;;;;;;;26.31;39.67;102052.00;4851471;29;20051;-77
2022/08/09 08:56:35;;;;;;;2.83;2.35;;;;;;;26.60;40.29;102053.72;4875310;29;20049;-77
2022/08/09 08:59:09;;;;;;;2.92;2.55;;;;;;;26.90;38.19;102047.22;4869683;29;20108;-78
2022/08/09 09:01:47;;;;;;;3.88;2.40;;;;;;;26.86;38.11;102046.56;4860403;29;20041;-78
2022/08/09 09:04:25;;;;;;;3.33;2.13;;;;;;;26.91;38.54;102040.84;4884579;29;20052;-78
2022/08/09 09:06:56;;;;;;;3.10;2.25;;;;;;;27.18;38.52;102043.53;4867148;29;20296;-78
2022/08/09 09:09:25;;;;;;;3.65;2.60;;;;;;;27.44;37.68;102042.59;4872013;29;20052;-78
2022/08/09 09:12:14;;;;;;;3.15;2.30;;;;;;;27.46;37.25;102034.34;4875207;29;20029;-78
2022/08/09 09:14:43;;;;;;;2.85;2.20;;;;;;;27.83;36.67;102037.19;4876432;29;20052;-78
2022/08/09 09:17:10;;;;;;;2.60;2.30;;;;;;;27.89;35.97;102032.19;4877144;29;20049;-77
2022/08/09 09:19:42;;;;;;;3.38;2.30;;;;;;;27.72;36.22;102041.56;4859153;29;20073;-78
2022/08/09 09:22:14;;;;;;;4.10;2.53;;;;;;;27.42;36.26;102047.28;4858165;29;20048;-77
2022/08/09 09:24:52;;;;;;;3.72;2.60;;;;;;;27.20;37.31;102057.88;4851470;29;20135;-78
2022/08/09 09:27:39;;;;;;;2.85;2.20;;;;;;;26.52;37.10;102044.34;4874734;29;20431;-77
2022/08/09 09:30:25;;;;;;;3.63;1.83;;;;;;;26.14;38.17;102046.78;4860287;29;20052;-78
2022/08/09 09:33:09;;;;;;;2.42;2.03;;;;;;;26.09;38.08;102041.69;4876855;29;20448;-77
2022/08/09 09:35:55;;;;;;;10.07;2.88;;;;;;;26.80;36.88;102041.53;4877177;29;20574;-78
2022/08/09 09:38:42;;;;;;;3.45;2.40;;;;;;;26.93;36.86;102041.59;4877447;29;20092;-77
2022/08/09 09:41:32;;;;;;;4.65;2.80;;;;;;;27.29;35.68;102035.53;4849819;29;20156;-78
2022/08/09 09:44:23;;;;;;;2.90;2.03;;;;;;;27.94;34.69;102038.19;4869520;29;20055;-78
2022/08/09 09:46:55;;;;;;;3.45;2.50;;;;;;;28.27;33.93;102039.44;4840380;29;20045;-78
2022/08/09 09:49:23;;;;;;;114.75;19.77;;;;;;;28.75;33.24;102037.66;4875235;29;20051;-78
2022/08/09 09:52:10;;;;;;;4.00;2.50;;;;;;;28.64;33.05;102039.44;4877407;29;20050;-78
2022/08/09 09:55:08;;;;;;;4.15;2.67;;;;;;;28.03;33.46;102029.38;4861237;29;20041;-78
2022/08/09 09:58:03;;;;;;;2.95;2.50;;;;;;;28.66;33.00;102027.47;4890209;29;20045;-77
2022/08/09 10:00:52;;;;;;;3.72;2.22;;;;;;;29.07;31.04;102027.06;4889893;29;20048;-78
2022/08/09 10:03:47;;;;;;;11.82;3.28;;;;;;;29.47;31.40;102034.88;4879303;29;20136;-78
2022/08/09 10:06:26;;;;;;;2.95;2.13;;;;;;;29.04;31.10;102035.47;4860640;29;20056;-80
2022/08/09 10:09:02;;;;;;;3.22;2.60;;;;;;;28.24;31.88;102026.91;4863761;29;20136;-77
2022/08/09 10:11:59;;;;;;;3.72;2.10;;;;;;;27.38;32.48;102032.16;4869347;29;20567;-78
2022/08/09 10:14:45;;;;;;;26.55;4.57;;;;;;;27.08;33.58;102031.59;4868754;29;20494;-79
2022/08/09 10:17:16;;;;;;;22.52;4.53;;;;;;;26.98;34.78;102027.72;4874323;29;20059;-78
2022/08/09 10:20:18;;;;;;;8.05;2.80;;;;;;;26.55;35.27;102025.16;4831667;29;20140;-78
2022/08/09 10:23:13;;;;;;;2.20;1.83;;;;;;;26.93;34.92;102018.06;4874175;29;20037;-78
2022/08/09 10:25:46;;;;;;;3.40;2.13;;;;;;;27.80;33.97;102026.56;4865778;29;20052;-77
2022/08/09 10:28:33;;;;;;;3.40;2.05;;;;;;;27.90;33.38;102022.22;4863576;29;20037;-78
2022/08/09 10:31:01;;;;;;;2.47;2.00;;;;;;;27.37;32.91;102019.56;4876540;29;20064;-77
2022/08/09 10:33:49;;;;;;;3.92;2.20;;;;;;;26.75;34.25;102027.44;4878335;29;20145;-77
2022/08/09 10:36:36;;;;;;;4.13;2.47;;;;;;;26.54;35.53;102023.44;4878464;29;20049;-78
2022/08/09 10:39:03;;;;;;;2.70;2.17;;;;;;;26.74;35.24;102013.94;4862040;29;20052;-77
2022/08/09 10:41:41;;;;;;;2.30;2.03;;;;;;;27.10;34.28;102011.50;4873071;29;20246;-77
2022/08/09 10:44:08;;;;;;;3.35;2.30;;;;;;;27.62;33.03;102001.56;4850114;29;20051;-77
2022/08/09 10:47:04;;;;;;;2.33;2.03;;;;;;;28.16;32.50;102004.00;4865009;29;20048;-76
2022/08/09 10:50:16;;;;;;;6.63;2.65;;;;;;;28.50;31.91;101992.44;4858127;29;20044;-77
2022/08/09 10:53:03;;;;;;;3.53;2.28;;;;;;;27.82;33.07;101998.31;4878411;29;20048;-77
2022/08/09 10:55:31;;;;;;;65.28;10.35;;;;;;;27.26;34.11;101997.75;4891210;29;20048;-77
2022/08/09 10:58:31;;;;;;;2.80;2.10;;;;;;;27.14;34.72;101995.88;4868540;29;20456;-77
2022/08/09 11:01:01;;;;;;;3.55;2.20;;;;;;;27.82;34.56;101998.31;4874285;29;20617;-78
2022/08/09 11:04:20;;;;;;;2.63;1.80;;;;;;;27.86;33.10;102001.69;4872696;29;20564;-77
2022/08/09 11:06:57;;;;;;;2.78;2.08;;;;;;;27.30;33.35;102003.81;4860072;29;20044;-77
2022/08/09 11:09:38;;;;;;;3.33;1.92;;;;;;;27.32;32.61;101999.16;4849812;29;20049;-77
2022/08/09 11:12:27;;;;;;;3.47;2.03;;;;;;;27.24;33.79;102005.09;4871593;29;20033;-76
2022/08/09 11:14:57;;;;;;;3.35;2.20;;;;;;;27.59;32.77;101999.94;4847653;29;20517;-77
2022/08/09 11:17:24;;;;;;;2.92;2.08;;;;;;;28.06;32.50;101990.22;4859521;29;20048;-77
2022/08/09 11:20:06;;;;;;;2.53;2.33;;;;;;;28.18;31.98;102002.06;4867339;29;20073;-77
2022/08/09 11:22:50;;;;;;;5.45;2.05;;;;;;;28.89;31.76;101990.38;4878150;29;20582;-77
2022/08/09 11:25:26;;;;;;;2.10;1.75;;;;;;;29.14;30.67;101989.38;4875475;29;20502;-77
2022/08/09 11:28:34;;;;;;;2.72;2.20;;;;;;;29.33;30.42;101984.22;4873897;29;20053;-79
2022/08/09 11:31:45;;;;;;;3.28;1.98;;;;;;;29.30;30.83;101987.19;4872614;29;20118;-78
2022/08/09 11:34:21;;;;;;;2.53;1.90;;;;;;;29.47;30.71;101985.00;4884697;29;20044;-78
2022/08/09 11:36:48;;;;;;;3.13;2.38;;;;;;;29.85;30.08;101979.19;4843099;29;20041;-78
2022/08/09 11:39:15;;;;;;;4.72;2.25;;;;;;;29.47;30.42;101985.84;4856389;29;20040;-78
2022/08/09 11:41:42;;;;;;;2.20;2.00;;;;;;;29.51;30.03;101995.53;4876787;29;20033;-77
2022/08/09 11:44:10;;;;;;;3.45;2.17;;;;;;;29.23;30.35;101987.78;4857635;29;20120;-76
2022/08/09 11:46:56;;;;;;;5.70;2.10;;;;;;;28.75;30.64;101983.25;4877366;29;20060;-78
2022/08/09 11:49:57;;;;;;;20.67;3.60;;;;;;;27.78;31.56;101985.94;4880578;29;20506;-77
2022/08/09 11:52:58;;;;;;;2.45;1.90;;;;;;;27.31;32.66;101995.56;4878508;29;20685;-77
2022/08/09 11:55:46;;;;;;;1.88;1.65;;;;;;;27.30;32.78;101991.13;4871565;29;20443;-78
2022/08/09 11:58:19;;;;;;;1.70;1.60;;;;;;;27.48;32.86;101992.53;4878202;29;20074;-78
2022/08/09 12:01:06;;;;;;;2.45;2.10;;;;;;;28.01;31.84;101981.56;4874446;29;20037;-77
2022/08/09 12:03:42;;;;;;;3.05;2.30;;;;;;;28.63;30.29;101983.34;4852843;29;20041;-77
2022/08/09 12:06:25;;;;;;;2.90;2.13;;;;;;;28.83;30.63;101979.94;4875311;29;20132;-78
2022/08/09 12:08:59;;;;;;;2.95;1.92;;;;;;;28.63;31.11;101984.19;4872765;29;20051;-77